^^
Meteo Knjazevac Station Historical Data
Daily Summary for October 30, 2021 Units:  English    Metric   Both
Daily Weekly Monthly Yearly Custom
  High: Low: Average:
Temperature: 40.3 °F 31.3 °F 34.9 °F
Dew Point: 38.5 °F 29.8 °F 33.6 °F
Humidity: 99% 91% 95%
Wind Speed: 3mph 0mph 0.8mph
Wind Gust: 5mph - -
Wind- - West
Pressure: 30.33 in 30.29 in -
Precipitation: 0.00 in    
Historical Graphs
 
 
Tabular Data for October 30, 2021
Time Temperature Dew Point Pressure Wind Wind Speed Wind Gust Humidity Rainfall Rate (Hourly) solar Conditions
00:00 40.3 °F 38.4 °F 30.29 in Calm   2 mph 93% 0.00 in 0 W/m2
00:10 40.1 °F 38.5 °F 30.29 in Calm   2 mph 94% 0.00 in 0 W/m2
00:20 40.1 °F 38.2 °F 30.29 in NE 1 mph 3 mph 93% 0.00 in 0 W/m2
00:30 39.7 °F 37.9 °F 30.29 in Calm   1 mph 93% 0.00 in 0 W/m2
00:40 39.2 °F 37.4 °F 30.30 in Calm   3 mph 93% 0.00 in 0 W/m2
00:50 38.8 °F 37 °F 30.30 in Calm   3 mph 93% 0.00 in 0 W/m2
01:00 38.7 °F 37.1 °F 30.30 in Calm   2 mph 94% 0.00 in 0 W/m2
01:10 38.5 °F 36.9 °F 30.30 in NNE 2 mph 3 mph 94% 0.00 in 0 W/m2
01:20 38.3 °F 36.7 °F 30.30 in Calm   3 mph 94% 0.00 in 0 W/m2
01:30 37.8 °F 35.9 °F 30.30 in Calm   1 mph 93% 0.00 in 0 W/m2
01:40 37.2 °F 34.8 °F 30.30 in NW 1 mph 2 mph 91% 0.00 in 0 W/m2
01:50 36.7 °F 34.9 °F 30.30 in Calm   2 mph 93% 0.00 in 0 W/m2
02:00 36.5 °F 34.7 °F 30.30 in Calm   2 mph 93% 0.00 in 0 W/m2
02:10 36.2 °F 34.3 °F 30.30 in Calm   2 mph 93% 0.00 in 0 W/m2
02:20 35.8 °F 33.4 °F 30.30 in Calm   1 mph 91% 0.00 in 0 W/m2
02:30 35.4 °F 33.1 °F 30.30 in Calm   2 mph 91% 0.00 in 0 W/m2
02:40 35.1 °F 33.2 °F 30.31 in WNW 2 mph 4 mph 93% 0.00 in 0 W/m2
02:50 35.1 °F 33.5 °F 30.31 in Calm   4 mph 94% 0.00 in 0 W/m2
03:00 34.7 °F 32.9 °F 30.31 in Calm   1 mph 93% 0.00 in 0 W/m2
03:10 34.3 °F 32.5 °F 30.31 in Calm   1 mph 93% 0.00 in 0 W/m2
03:20 34 °F 32.2 °F 30.31 in NW 1 mph 2 mph 93% 0.00 in 0 W/m2
03:30 34 °F 32.7 °F 30.31 in NW 2 mph 3 mph 95% 0.00 in 0 W/m2
03:40 33.8 °F 32.3 °F 30.31 in NW 1 mph 3 mph 94% 0.00 in 0 W/m2
03:50 33.6 °F 32.4 °F 30.31 in Calm   3 mph 95% 0.00 in 0 W/m2
04:00 33.3 °F 31.7 °F 30.31 in Calm   2 mph 94% 0.00 in 0 W/m2
04:10 33.1 °F 31.5 °F 30.31 in Calm   2 mph 94% 0.00 in 0 W/m2
04:20 32.9 °F 31.4 °F 30.31 in NW 1 mph 2 mph 94% 0.00 in 0 W/m2
04:30 32.5 °F 31 °F 30.31 in NW 1 mph 2 mph 94% 0.00 in 0 W/m2
04:40 32.2 °F 30.6 °F 30.31 in NNW 2 mph 3 mph 94% 0.00 in 0 W/m2
04:50 32.2 °F 30.6 °F 30.31 in Calm   2 mph 94% 0.00 in 0 W/m2
05:00 31.8 °F 30.3 °F 30.31 in Calm   2 mph 94% 0.00 in 0 W/m2
05:10 31.5 °F 30 °F 30.31 in Calm   2 mph 94% 0.00 in 0 W/m2
05:20 31.5 °F 29.9 °F 30.31 in Calm   2 mph 94% 0.00 in 0 W/m2
05:30 31.3 °F 29.8 °F 30.32 in NW 1 mph 2 mph 94% 0.00 in 0 W/m2
05:40 31.3 °F 30 °F 30.32 in Calm   2 mph 95% 0.00 in 0 W/m2
05:50 31.6 °F 30.6 °F 30.32 in NW 1 mph 2 mph 96% 0.00 in 0 W/m2
06:00 31.8 °F 30.8 °F 30.32 in WNW 2 mph 4 mph 96% 0.00 in 0 W/m2
06:10 32 °F 31.5 °F 30.32 in WNW 2 mph 4 mph 98% 0.00 in 0 W/m2
06:20 32.4 °F 31.9 °F 30.32 in WNW 2 mph 4 mph 98% 0.00 in 0 W/m2
06:30 32.7 °F 32.2 °F 30.31 in Calm   4 mph 98% 0.00 in 0 W/m2
06:40 32.7 °F 32.2 °F 30.31 in WNW 1 mph 2 mph 98% 0.00 in 0 W/m2
06:50 32.9 °F 31.9 °F 30.31 in WNW 1 mph 2 mph 96% 0.00 in 0 W/m2
07:00 33.1 °F 32.6 °F 30.31 in West 2 mph 3 mph 98% 0.00 in 0 W/m2
07:10 33.4 °F 32.9 °F 30.31 in WNW 2 mph 3 mph 98% 0.00 in 2 W/m2
07:20 33.8 °F 33.5 °F 30.31 in WNW 2 mph 5 mph 99% 0.00 in 5 W/m2
07:30 34.1 °F 33.6 °F 30.32 in WNW 2 mph 3 mph 98% 0.00 in 9 W/m2
07:40 34.2 °F 33.7 °F 30.32 in WNW 1 mph 3 mph 98% 0.00 in 13 W/m2
07:50 34.3 °F 33.8 °F 30.32 in WNW 3 mph 5 mph 98% 0.00 in 17 W/m2
08:00 34.5 °F 34 °F 30.32 in WNW 2 mph 4 mph 98% 0.00 in 21 W/m2
08:10 34.7 °F 34.2 °F 30.32 in WNW 2 mph 3 mph 98% 0.00 in 27 W/m2
08:20 35.1 °F 34.6 °F 30.32 in WNW 1 mph 3 mph 98% 0.00 in 34 W/m2
08:30 35.6 °F 35.3 °F 30.32 in West 1 mph 2 mph 99% 0.00 in 42 W/m2
08:40 35.8 °F 35.5 °F 30.32 in West 1 mph 2 mph 99% 0.00 in 46 W/m2
08:50 36.3 °F 36 °F 30.32 in NW 1 mph 2 mph 99% 0.00 in 54 W/m2
09:00 36.7 °F 36.4 °F 30.32 in Calm   2 mph 99% 0.00 in 60 W/m2
09:10 37 °F 36.8 °F 30.33 in Calm   2 mph 99% 0.00 in 69 W/m2
Knjazevac, Serbia
Compliments of Weather Underground - 2 mb